Saint Matthews, SC

7:44 PM EDT on September 02, 2014 (GMT -0400)
Swansea @ 21 | Change Station
CLOSE
Current Station
Personal Weather Station
Location: Swansea, SC
Elevation: 384 ft
Nearby Weather Stations

Elev 384 ft 33.76 °N, 80.97 °W | Updated 6 minutes ago

Partly Cloudy
Partly Cloudy
73.8 °F
Feels Like 72 °F
N
0.0
Wind Variable Wind from SSW

Today
High -- | Low -- °F
--% Chance of Precip.
Yesterday
High -- | Low -- °F
Precip. -- in
6:57 AM 7:47 PM
First Quarter, 56% visible
Pressure 30.05 in
Visibility 10.0 miles
Clouds Mostly Cloudy 14000 ft
Mostly Cloudy 25000 ft
Heat Index 72 °F
Dew Point 70 °F
Humidity 88%
Rainfall 0.10 in
Snow Depth Not available.
UV 0 out of 12
Pollen 9.70 out of 12
Ozone Good
Flu Activity Not available.
SPECI KMMT 022323Z 31005KT 10SM VCTS BKN140 BKN250 25/22 A3005 RMK LTG DSNT NE

More Conditions Fewer Conditions

Pressure 30.05 in
Visibility 10.0 miles
Clouds Mostly Cloudy 14000 ft
Mostly Cloudy 25000 ft
Heat Index 72 °F
Dew Point 70 °F
Humidity 88%
Rainfall 0.10 in
Snow Depth Not available.
UV 0 out of 12
Pollen 9.70 out of 12
Ozone Good
Flu Activity Not available.
SPECI KMMT 022323Z 31005KT 10SM VCTS BKN140 BKN250 25/22 A3005 RMK LTG DSNT NE

More Conditions Fewer Conditions

10-Day Weather Forecast

Almanac

Astronomy

Sep. 02, 2014 Rise Set
Actual Time 6:57 AM EDT 7:47 PM EDT
Civil Twilight 6:32 AM EDT 8:12 PM EDT
Nautical Twilight 6:02 AM EDT 8:42 PM EDT
Astronomical Twilight 5:31 AM EDT 9:13 PM EDT
Moon 2:20 PM EDT 12:08 AM EDT
Length of Visible Light 13h 40m
Length of Day
12h 49m
Tomorrow will be 2m 1s shorter.
First Quarter, 56% of the Moon is Illuminated
Today
First Quarter
Sep 8
Full
Sep 15
Last Quarter
Sep 24
New
Oct 1
First Quarter

Today's Extremes

State Highs State Lows

Community

WunderPhotos

Upload Photos

1,749,799 photos uploaded!

Nearby

Air Quality

  Air Quality AQ Index Pollutant
Yesterday Good
OZONE
Current Good
OZONE
Tuesday Good
OZONE
Wednesday Good
OZONE

Snow Depth

Station Depth Elevation
No new snow has been reported.

Earthquake Activity

City Distance Mag. Time & Date
No recent earthquake activity has been reported nearby.
Minimum magnitude displayed is 2.5.

Coastal Water Temperatures

Place Temperature
No Stations Reporting

Nearby Weather Stations